Time;durP1;ratioP1;P1;durP2;ratioP2;P2;SDS_P1;SDS_P2;PMS_P1;PMS_P2;Temp;Humidity;BMP_temperature;BMP_pressure;BME280_temperature;BME280_humidity;BME280_pressure;Samples;Min_cycle;Max_cycle;Signal;HPM_P1;HPM_P2
2021/05/21 00:00:21;;;;;;;432.27;232.53;;;;;;;8.74;71.43;98904.69;5030551;28;20378;-62
2021/05/21 00:02:46;;;;;;;434.33;233.13;;;;;;;8.54;71.88;98897.13;5031372;28;20391;-63
2021/05/21 00:05:12;;;;;;;432.53;228.33;;;;;;;8.54;72.28;98909.06;5032926;28;20435;-62
2021/05/21 00:07:38;;;;;;;432.47;229.53;;;;;;;8.50;72.49;98907.38;5032502;28;20030;-62
2021/05/21 00:10:04;;;;;;;434.40;229.00;;;;;;;8.43;72.53;98900.63;5032275;28;20116;-62
2021/05/21 00:12:29;;;;;;;434.10;230.03;;;;;;;8.36;72.95;98894.69;5035369;28;20029;-62
2021/05/21 00:14:55;;;;;;;438.57;232.70;;;;;;;8.31;73.26;98904.09;5028491;28;20272;-62
2021/05/21 00:17:20;;;;;;;433.83;229.80;;;;;;;8.26;73.54;98895.59;5033183;28;20036;-62
2021/05/21 00:19:45;;;;;;;437.20;227.80;;;;;;;8.23;73.34;98891.31;5035416;28;20036;-63
2021/05/21 00:22:11;;;;;;;433.57;229.97;;;;;;;8.17;74.22;98901.59;5032703;28;20061;-62
2021/05/21 00:24:36;;;;;;;432.80;227.60;;;;;;;8.10;74.59;98899.09;5032766;28;20091;-63
2021/05/21 00:27:02;;;;;;;432.93;228.20;;;;;;;8.11;74.56;98896.50;5031016;28;20041;-63
2021/05/21 00:29:27;;;;;;;430.47;219.80;;;;;;;8.19;73.96;98899.84;5029522;28;20383;-63
2021/05/21 00:31:53;;;;;;;432.93;222.47;;;;;;;8.24;73.64;98894.72;5029271;28;20289;-63
2021/05/21 00:34:18;;;;;;;431.93;218.53;;;;;;;8.45;72.73;98899.75;5028077;28;20030;-63
2021/05/21 00:36:43;;;;;;;431.67;219.43;;;;;;;8.45;72.21;98896.34;5030313;28;20352;-63
2021/05/21 00:39:09;;;;;;;439.83;234.03;;;;;;;8.63;71.43;98880.88;5030998;28;20037;-63
2021/05/21 00:41:34;;;;;;;430.90;214.37;;;;;;;8.75;70.53;98875.69;5033673;28;20440;-63
2021/05/21 00:44:00;;;;;;;433.53;224.90;;;;;;;8.86;70.22;98879.03;5027934;28;20021;-63
2021/05/21 00:46:25;;;;;;;431.40;223.33;;;;;;;8.86;70.11;98875.63;5033387;28;20042;-63
2021/05/21 00:48:51;;;;;;;434.30;225.47;;;;;;;8.96;69.42;98875.50;5029977;28;20041;-63
2021/05/21 00:51:16;;;;;;;433.20;221.43;;;;;;;8.91;69.76;98877.25;5018440;28;20446;-62
2021/05/21 00:53:43;;;;;;;430.07;225.13;;;;;;;8.96;69.61;98882.31;5031121;28;20029;-63
2021/05/21 00:56:08;;;;;;;427.97;220.67;;;;;;;9.01;68.59;98872.91;5030891;28;20116;-62
2021/05/21 00:58:36;;;;;;;437.27;228.70;;;;;;;8.94;69.18;98864.47;5029685;28;20354;-63
2021/05/21 01:01:02;;;;;;;429.63;220.07;;;;;;;8.70;69.82;98870.59;5030340;28;20045;-63
2021/05/21 01:03:27;;;;;;;434.60;230.97;;;;;;;8.57;70.56;98876.66;5029890;28;20292;-63
2021/05/21 01:05:53;;;;;;;432.20;226.93;;;;;;;8.40;72.06;98885.31;5030075;28;20275;-63
2021/05/21 01:08:19;;;;;;;432.90;225.37;;;;;;;8.33;72.40;98881.09;5029724;28;20048;-63
2021/05/21 01:10:45;;;;;;;430.87;223.90;;;;;;;8.17;72.78;98878.59;5033522;28;20039;-63
2021/05/21 01:13:11;;;;;;;431.33;225.23;;;;;;;8.01;73.48;98871.03;5030576;28;20264;-63
2021/05/21 01:15:38;;;;;;;431.70;224.90;;;;;;;7.97;73.90;98867.66;5029764;28;20292;-63
2021/05/21 01:18:05;;;;;;;430.27;220.23;;;;;;;7.85;74.38;98867.69;5030251;28;20393;-64
2021/05/21 01:20:32;;;;;;;429.60;214.73;;;;;;;7.78;75.18;98863.47;5028667;28;20281;-65
2021/05/21 01:22:57;;;;;;;430.10;218.63;;;;;;;7.74;74.80;98866.88;5028216;28;20288;-64
2021/05/21 01:25:23;;;;;;;435.60;225.07;;;;;;;7.86;74.12;98860.88;5027851;28;20284;-63
2021/05/21 01:27:50;;;;;;;428.53;214.57;;;;;;;7.80;74.66;98857.53;5029612;28;20036;-63
2021/05/21 01:30:15;;;;;;;434.03;221.33;;;;;;;7.77;74.39;98859.22;5030494;28;20036;-63
2021/05/21 01:32:41;;;;;;;427.10;207.23;;;;;;;7.76;74.48;98855.84;5028217;28;20288;-64
2021/05/21 01:35:07;;;;;;;431.20;211.50;;;;;;;7.58;75.00;98852.50;5031251;28;20030;-63
2021/05/21 01:37:33;;;;;;;424.97;202.97;;;;;;;7.43;75.74;98857.63;5028296;28;20285;-63
2021/05/21 01:40:00;;;;;;;428.83;204.57;;;;;;;7.38;76.42;98849.16;5030743;28;20429;-64
2021/05/21 01:42:26;;;;;;;430.33;204.87;;;;;;;7.28;77.06;98848.34;5030750;28;20025;-64
2021/05/21 01:44:54;;;;;;;428.23;205.40;;;;;;;7.30;76.76;98836.41;5029428;28;20307;-64
2021/05/21 01:47:19;;;;;;;425.17;198.83;;;;;;;7.26;76.57;98830.47;5028016;28;20124;-63
2021/05/21 01:49:45;;;;;;;425.60;198.03;;;;;;;7.23;76.69;98829.66;5031651;28;20280;-64
2021/05/21 01:52:10;;;;;;;422.70;194.87;;;;;;;7.31;76.48;98827.91;5030296;28;20120;-63
2021/05/21 01:54:36;;;;;;;424.70;197.07;;;;;;;7.28;76.71;98816.03;5029525;28;20029;-64
2021/05/21 01:57:02;;;;;;;424.50;196.27;;;;;;;7.35;76.18;98814.31;5027696;28;20029;-63
2021/05/21 01:59:28;;;;;;;422.63;191.33;;;;;;;7.30;76.17;98810.91;5032176;28;20030;-63
2021/05/21 02:01:54;;;;;;;426.93;198.40;;;;;;;7.29;76.71;98807.53;5030220;28;20268;-64
2021/05/21 02:04:30;;;;;;;421.73;191.00;;;;;;;7.38;76.20;98803.25;5032809;28;20065;-62
2021/05/21 02:06:56;;;;;;;421.60;188.80;;;;;;;7.27;76.20;98809.25;5030117;28;20440;-62
2021/05/21 02:09:21;;;;;;;424.63;192.80;;;;;;;7.23;76.60;98810.09;5030433;28;20818;-63
2021/05/21 02:11:47;;;;;;;423.97;192.07;;;;;;;7.12;77.28;98806.75;5030537;28;20601;-65
2021/05/21 02:14:12;;;;;;;422.33;191.17;;;;;;;7.05;77.56;98796.53;5030520;28;20068;-62
2021/05/21 02:16:38;;;;;;;422.13;190.70;;;;;;;7.06;77.66;98796.53;5032146;28;20029;-64
2021/05/21 02:19:04;;;;;;;418.70;184.27;;;;;;;7.11;77.62;98799.94;5032148;28;20145;-64
2021/05/21 02:21:32;;;;;;;421.27;185.73;;;;;;;7.09;77.27;98803.31;5018549;28;20411;-63
2021/05/21 02:24:05;;;;;;;421.13;187.47;;;;;;;7.18;77.09;98804.16;5026334;28;20545;-63
2021/05/21 02:26:31;;;;;;;421.87;188.07;;;;;;;7.14;77.42;98793.97;5031588;28;20282;-63
2021/05/21 02:28:56;;;;;;;418.33;181.67;;;;;;;7.10;77.21;98788.03;5030450;28;20359;-63
2021/05/21 02:31:22;;;;;;;427.70;203.70;;;;;;;7.27;75.94;98790.53;5030006;28;20410;-63
2021/05/21 02:33:47;;;;;;;431.07;200.63;;;;;;;7.26;76.02;98788.84;5028391;28;20116;-63
2021/05/21 02:36:13;;;;;;;423.73;189.83;;;;;;;7.23;75.98;98787.16;5029136;28;20029;-63
2021/05/21 02:38:38;;;;;;;423.07;188.47;;;;;;;7.14;76.39;98774.44;5010712;28;20045;-64
2021/05/21 02:41:04;;;;;;;424.37;192.53;;;;;;;7.20;76.85;98781.22;5029557;28;20670;-63
2021/05/21 02:43:29;;;;;;;428.00;196.33;;;;;;;7.33;75.20;98776.06;5030118;28;20029;-63
2021/05/21 02:45:54;;;;;;;428.17;194.47;;;;;;;7.40;74.42;98778.59;5029254;28;20036;-62
2021/05/21 02:48:20;;;;;;;425.30;194.43;;;;;;;7.44;74.24;98768.38;5029285;28;20106;-63
2021/05/21 02:50:45;;;;;;;421.27;187.33;;;;;;;7.57;73.80;98762.34;5030082;28;20271;-62
2021/05/21 02:53:10;;;;;;;425.17;191.30;;;;;;;7.62;73.56;98758.09;5027025;28;20036;-63
2021/05/21 02:55:36;;;;;;;422.73;185.63;;;;;;;7.60;73.57;98774.22;5027248;28;20037;-64
2021/05/21 02:58:03;;;;;;;421.13;187.20;;;;;;;7.50;74.09;98772.59;5023768;28;20132;-64
2021/05/21 03:00:29;;;;;;;422.87;188.70;;;;;;;7.46;74.56;98771.78;5027519;28;20048;-63
2021/05/21 03:02:54;;;;;;;424.90;187.93;;;;;;;7.40;74.35;98779.44;5027237;28;20684;-63
2021/05/21 03:05:22;;;;;;;422.80;187.50;;;;;;;7.26;75.19;98776.94;5027352;28;20273;-64
2021/05/21 03:07:58;;;;;;;422.37;186.37;;;;;;;7.20;75.31;98769.31;5029529;28;20096;-64
2021/05/21 03:10:27;;;;;;;428.87;226.00;;;;;;;7.17;75.80;98776.97;5028418;28;20299;-64
2021/05/21 03:12:53;;;;;;;423.97;191.80;;;;;;;7.06;76.00;98772.75;5025538;28;20260;-63
2021/05/21 03:15:19;;;;;;;425.50;191.33;;;;;;;6.97;76.63;98771.06;5028669;28;20916;-64
2021/05/21 03:17:45;;;;;;;425.30;190.97;;;;;;;6.91;76.88;98760.91;5029155;28;20289;-63
2021/05/21 03:20:13;;;;;;;423.20;189.87;;;;;;;7.03;76.53;98757.47;5017152;28;20061;-62
2021/05/21 03:22:38;;;;;;;423.23;188.27;;;;;;;6.98;76.96;98746.44;5029071;28;20284;-63
2021/05/21 03:25:05;;;;;;;426.27;189.47;;;;;;;7.09;76.39;98750.66;5026632;28;20337;-63
2021/05/21 03:27:31;;;;;;;426.87;194.20;;;;;;;7.15;75.68;98745.53;5028768;28;20374;-63
2021/05/21 03:29:58;;;;;;;419.67;181.77;;;;;;;7.24;75.44;98742.09;5037007;28;20306;-63
2021/05/21 03:32:24;;;;;;;435.60;197.47;;;;;;;7.20;74.88;98731.06;5034733;28;20839;-63
2021/05/21 03:34:50;;;;;;;426.70;187.97;;;;;;;7.20;75.05;98741.28;5034829;28;20296;-63
2021/05/21 03:37:15;;;;;;;429.23;194.63;;;;;;;7.29;75.37;98748.91;5035258;28;20259;-63
2021/05/21 03:39:41;;;;;;;420.80;184.73;;;;;;;7.32;75.41;98755.66;5033965;28;20363;-63
2021/05/21 03:42:07;;;;;;;425.90;191.57;;;;;;;7.40;75.00;98753.94;5036220;28;20029;-63
2021/05/21 03:44:32;;;;;;;423.73;187.83;;;;;;;7.45;75.04;98748.81;5035166;28;20132;-64
2021/05/21 03:47:01;;;;;;;431.37;198.10;;;;;;;7.49;74.72;98755.59;5035355;28;20371;-63
2021/05/21 03:49:27;;;;;;;419.90;184.03;;;;;;;7.50;74.99;98747.09;5032389;28;20033;-64
2021/05/21 03:51:53;;;;;;;428.27;195.67;;;;;;;7.48;75.00;98748.78;5031364;28;20276;-64
2021/05/21 03:54:18;;;;;;;423.53;189.53;;;;;;;7.52;75.11;98735.16;5033677;28;20029;-63
2021/05/21 03:56:44;;;;;;;426.17;196.13;;;;;;;7.56;75.20;98735.13;5036842;28;20280;-63
2021/05/21 03:59:09;;;;;;;430.20;202.73;;;;;;;7.59;75.26;98737.69;5033262;28;20461;-63
2021/05/21 04:01:35;;;;;;;424.93;196.13;;;;;;;7.56;74.90;98732.59;5031043;28;20402;-64
2021/05/21 04:04:01;;;;;;;426.07;195.43;;;;;;;7.59;74.92;98736.84;5032530;28;20029;-64
2021/05/21 04:06:27;;;;;;;427.07;200.20;;;;;;;7.58;74.93;98730.03;5035616;28;20037;-64
2021/05/21 04:08:52;;;;;;;428.27;200.80;;;;;;;7.71;74.80;98741.88;5031585;28;20275;-64
2021/05/21 04:11:18;;;;;;;430.73;203.17;;;;;;;7.75;75.25;98748.66;5031442;28;20057;-64
2021/05/21 04:13:43;;;;;;;428.97;203.37;;;;;;;7.84;75.02;98746.06;5033190;28;20369;-64
2021/05/21 04:16:08;;;;;;;431.90;206.90;;;;;;;7.85;74.82;98737.50;5033065;28;20092;-64
2021/05/21 04:18:34;;;;;;;428.73;205.33;;;;;;;7.89;74.84;98725.59;5035006;28;20137;-64
2021/05/21 04:21:00;;;;;;;431.07;210.70;;;;;;;7.89;74.42;98730.72;5036838;28;20060;-64
2021/05/21 04:23:25;;;;;;;439.37;217.70;;;;;;;7.96;74.71;98729.81;5033457;28;20308;-64
2021/05/21 04:25:51;;;;;;;431.13;208.97;;;;;;;7.99;74.13;98737.44;5036950;28;20120;-64
2021/05/21 04:28:17;;;;;;;432.43;213.23;;;;;;;8.03;73.86;98734.00;5040139;28;20033;-64
2021/05/21 04:30:42;;;;;;;428.93;209.83;;;;;;;8.04;73.78;98738.25;5038510;28;20112;-64
2021/05/21 04:33:08;;;;;;;433.23;212.33;;;;;;;8.11;73.21;98733.09;5034155;28;20275;-64
2021/05/21 04:35:33;;;;;;;428.87;208.43;;;;;;;8.15;72.64;98732.19;5037250;28;20045;-64
2021/05/21 04:37:58;;;;;;;432.57;212.47;;;;;;;8.20;72.88;98732.16;5031719;28;20068;-65
2021/05/21 04:40:24;;;;;;;428.47;209.03;;;;;;;8.25;72.85;98721.06;5031705;28;20455;-64
2021/05/21 04:42:49;;;;;;;439.23;219.07;;;;;;;8.31;72.50;98725.31;5030190;28;20044;-63
2021/05/21 04:45:15;;;;;;;431.73;216.63;;;;;;;8.37;72.46;98726.94;5031377;28;20040;-64
2021/05/21 04:47:40;;;;;;;431.40;214.03;;;;;;;8.36;72.01;98717.63;5031445;28;20065;-64
2021/05/21 04:50:07;;;;;;;432.73;216.90;;;;;;;8.48;71.85;98713.25;5029684;28;20149;-64
2021/05/21 04:52:33;;;;;;;430.40;210.83;;;;;;;8.51;71.42;98717.47;5030561;28;20104;-64
2021/05/21 04:54:58;;;;;;;431.80;215.47;;;;;;;8.60;71.15;98725.91;5016994;28;20355;-64
2021/05/21 04:57:24;;;;;;;430.33;217.17;;;;;;;8.80;70.94;98723.13;5033794;28;20044;-64
2021/05/21 04:59:49;;;;;;;432.43;224.50;;;;;;;8.97;70.21;98718.69;5033688;28;20031;-64
2021/05/21 05:02:15;;;;;;;431.53;223.97;;;;;;;9.21;70.23;98716.72;5031726;28;20113;-63
2021/05/21 05:04:40;;;;;;;435.43;232.63;;;;;;;9.27;68.93;98708.94;5030902;28;20036;-64
2021/05/21 05:07:05;;;;;;;432.20;233.00;;;;;;;9.49;68.31;98712.94;5029759;28;20413;-64
2021/05/21 05:09:31;;;;;;;436.17;238.10;;;;;;;9.77;68.10;98705.69;5032689;28;20025;-63
2021/05/21 05:11:58;;;;;;;436.50;238.97;;;;;;;9.94;68.12;98704.56;5034503;28;20026;-63
2021/05/21 05:14:23;;;;;;;434.17;240.67;;;;;;;10.14;67.34;98695.75;5031808;28;20113;-64
2021/05/21 05:16:48;;;;;;;434.87;243.73;;;;;;;10.30;65.33;98685.25;5029998;28;20370;-63
2021/05/21 05:19:14;;;;;;;440.27;255.27;;;;;;;10.51;65.80;98686.59;5032466;28;20037;-64
2021/05/21 05:21:41;;;;;;;445.23;267.37;;;;;;;10.71;66.07;98688.78;5026833;28;20029;-64
2021/05/21 05:24:16;;;;;;;446.30;273.90;;;;;;;10.99;64.76;98675.41;5026324;28;20040;-63
2021/05/21 05:26:42;;;;;;;447.08;277.05;;;;;;;11.02;65.58;98664.25;5027269;28;20590;-63
2021/05/21 05:29:08;;;;;;;449.90;289.47;;;;;;;11.23;63.63;98661.22;5028597;28;20057;-64
2021/05/21 05:31:34;;;;;;;451.23;293.80;;;;;;;11.33;64.87;98667.03;5027272;28;20588;-64
2021/05/21 05:34:00;;;;;;;452.00;290.20;;;;;;;11.46;63.04;98665.84;5029534;28;20271;-63
2021/05/21 05:36:25;;;;;;;449.73;299.50;;;;;;;11.69;63.99;98663.63;5028614;28;20116;-63
2021/05/21 05:38:51;;;;;;;450.77;309.80;;;;;;;11.80;61.28;98653.97;5029387;28;20122;-64
2021/05/21 05:41:16;;;;;;;454.50;315.13;;;;;;;12.08;61.42;98651.59;5033488;28;20103;-63
2021/05/21 05:43:41;;;;;;;453.87;317.00;;;;;;;12.31;60.92;98641.56;5027015;28;20244;-63
2021/05/21 05:46:09;;;;;;;452.60;327.90;;;;;;;12.57;59.25;98646.03;5032659;28;20095;-63
2021/05/21 05:48:35;;;;;;;455.93;335.40;;;;;;;12.70;56.90;98639.66;5030241;28;20060;-63
2021/05/21 05:51:01;;;;;;;460.93;351.03;;;;;;;12.77;56.47;98636.03;5029890;28;20328;-63
2021/05/21 05:53:26;;;;;;;463.07;353.57;;;;;;;12.94;55.24;98632.16;5032104;28;20700;-63
2021/05/21 05:55:52;;;;;;;457.83;349.57;;;;;;;12.98;54.98;98620.91;5031137;28;20029;-64
2021/05/21 05:58:17;;;;;;;462.53;366.73;;;;;;;13.21;54.38;98631.38;5017647;28;20308;-65
2021/05/21 06:00:43;;;;;;;465.83;371.97;;;;;;;13.20;51.71;98617.66;5027821;28;20101;-63
2021/05/21 06:03:10;;;;;;;461.50;373.27;;;;;;;13.33;53.37;98623.28;5031791;28;20108;-63
2021/05/21 06:05:37;;;;;;;462.90;379.43;;;;;;;13.53;54.27;98612.41;5030918;28;20025;-63
2021/05/21 06:08:06;;;;;;;464.77;384.20;;;;;;;13.56;54.26;98622.59;5034669;28;20695;-64
2021/05/21 06:10:32;;;;;;;468.13;398.83;;;;;;;13.66;51.77;98618.84;5035625;28;20303;-64
2021/05/21 06:13:05;;;;;;;468.83;404.80;;;;;;;13.86;52.05;98613.91;5032162;28;20355;-63
2021/05/21 06:15:31;;;;;;;471.80;411.77;;;;;;;13.92;52.47;98610.28;5028289;28;20257;-64
2021/05/21 06:17:58;;;;;;;470.63;412.50;;;;;;;14.16;51.97;98607.75;5028970;28;20589;-64
2021/05/21 06:20:25;;;;;;;474.83;412.70;;;;;;;14.22;51.13;98610.97;5027831;28;20322;-63
2021/05/21 06:22:51;;;;;;;483.87;430.77;;;;;;;14.43;50.91;98608.53;5028335;28;20022;-63
2021/05/21 06:25:21;;;;;;;490.20;437.37;;;;;;;14.68;50.95;98610.28;5029811;28;20029;-63
2021/05/21 06:27:47;;;;;;;489.77;436.60;;;;;;;14.62;49.79;98607.00;5031131;28;20017;-63
2021/05/21 06:30:13;;;;;;;490.37;437.43;;;;;;;14.73;51.05;98600.59;5028557;28;20032;-64
2021/05/21 06:32:38;;;;;;;507.27;454.03;;;;;;;14.93;51.24;98591.25;5029708;28;20028;-63
2021/05/21 06:35:05;;;;;;;505.10;452.13;;;;;;;14.95;51.50;98594.63;5033600;28;20029;-64
2021/05/21 06:37:31;;;;;;;528.50;474.20;;;;;;;15.09;50.38;98592.38;5029809;28;20265;-63
2021/05/21 06:39:57;;;;;;;528.23;473.97;;;;;;;15.26;50.09;98585.72;5033185;28;20047;-63
2021/05/21 06:42:22;;;;;;;531.27;477.43;;;;;;;15.36;49.23;98571.56;5030635;28;20075;-64
2021/05/21 06:44:47;;;;;;;533.40;479.23;;;;;;;15.52;50.07;98565.75;5027854;28;20099;-64
2021/05/21 06:47:13;;;;;;;535.27;481.50;;;;;;;15.64;49.24;98563.56;5030101;28;20128;-63
2021/05/21 06:49:39;;;;;;;534.43;480.57;;;;;;;15.85;48.96;98563.53;5029614;28;20030;-63
2021/05/21 06:52:05;;;;;;;552.00;497.90;;;;;;;15.90;48.09;98565.94;5034436;28;20117;-63
2021/05/21 06:54:32;;;;;;;557.57;503.33;;;;;;;16.10;48.10;98565.94;5031004;28;20099;-64
2021/05/21 06:56:58;;;;;;;556.97;502.77;;;;;;;16.25;48.03;98559.28;5026013;28;20040;-63
2021/05/21 06:59:24;;;;;;;573.20;518.53;;;;;;;16.42;47.96;98536.91;5028252;28;20110;-63
2021/05/21 07:01:49;;;;;;;579.73;525.10;;;;;;;16.60;46.47;98526.69;5030741;28;20068;-64
2021/05/21 07:04:15;;;;;;;594.80;539.93;;;;;;;16.97;45.72;98534.50;5027759;28;20378;-63
2021/05/21 07:06:40;;;;;;;604.30;548.90;;;;;;;17.16;44.00;98524.94;5035948;28;20028;-63
2021/05/21 07:09:05;;;;;;;615.40;559.80;;;;;;;17.43;42.46;98524.53;5031046;28;20104;-64
2021/05/21 07:11:32;;;;;;;638.47;582.33;;;;;;;17.48;41.99;98520.81;5027844;28;20032;-63
2021/05/21 07:13:59;;;;;;;630.20;574.53;;;;;;;17.59;41.09;98513.38;5027469;28;20060;-64
2021/05/21 07:16:24;;;;;;;631.50;575.83;;;;;;;17.70;42.04;98521.44;5026864;28;20401;-63
2021/05/21 07:18:50;;;;;;;634.07;578.10;;;;;;;17.83;42.23;98516.50;5026755;28;20033;-64
2021/05/21 07:21:15;;;;;;;647.20;591.50;;;;;;;18.10;41.86;98509.91;5030518;28;20033;-63
2021/05/21 07:23:40;;;;;;;660.07;603.43;;;;;;;18.28;41.59;98497.75;5031800;28;20033;-65
2021/05/21 07:26:06;;;;;;;668.57;611.97;;;;;;;18.48;39.52;98501.91;5029926;28;20022;-64
2021/05/21 07:28:32;;;;;;;681.50;624.77;;;;;;;18.46;39.68;98485.56;5030007;28;20037;-64
2021/05/21 07:30:57;;;;;;;676.97;620.57;;;;;;;18.57;39.91;98493.66;5032205;28;20038;-65
2021/05/21 07:33:23;;;;;;;688.43;631.57;;;;;;;18.76;42.48;98480.50;5030977;28;20025;-64
2021/05/21 07:35:48;;;;;;;708.37;650.77;;;;;;;18.83;38.67;98477.50;5034300;28;20030;-65
2021/05/21 07:38:15;;;;;;;701.33;644.53;;;;;;;18.99;39.55;98472.28;5032918;28;20347;-65
2021/05/21 07:40:41;;;;;;;706.60;649.23;;;;;;;19.15;37.83;98468.75;5025160;28;20040;-64
2021/05/21 07:43:06;;;;;;;717.13;659.50;;;;;;;19.25;37.59;98466.47;5030552;28;20029;-65
2021/05/21 07:45:32;;;;;;;729.40;671.33;;;;;;;19.34;38.09;98457.31;5033997;28;20854;-64
2021/05/21 07:47:57;;;;;;;739.27;680.53;;;;;;;19.55;36.96;98464.75;5030116;28;20049;-65
2021/05/21 07:50:23;;;;;;;730.50;672.87;;;;;;;19.46;36.48;98460.09;5034406;28;20435;-65
2021/05/21 07:52:48;;;;;;;735.40;677.40;;;;;;;19.24;36.24;98451.78;5024288;28;20025;-64
2021/05/21 07:55:14;;;;;;;733.63;676.07;;;;;;;19.33;36.27;98453.88;5010523;28;20116;-64
2021/05/21 07:57:39;;;;;;;747.50;689.00;;;;;;;19.33;36.93;98451.28;5027913;28;20033;-64
2021/05/21 08:00:06;;;;;;;737.77;680.07;;;;;;;19.51;36.56;98452.88;5027539;28;20072;-65
2021/05/21 08:02:32;;;;;;;744.67;686.27;;;;;;;19.72;36.74;98448.16;5024574;28;20029;-65
2021/05/21 08:04:57;;;;;;;749.17;690.93;;;;;;;19.82;37.16;98448.44;5027791;28;20018;-64
2021/05/21 08:07:22;;;;;;;743.73;685.93;;;;;;;19.73;36.62;98455.03;5025389;28;20420;-64
2021/05/21 08:09:50;;;;;;;753.43;694.90;;;;;;;19.51;36.78;98439.84;5025777;28;20033;-64
2021/05/21 08:12:17;;;;;;;752.00;693.80;;;;;;;19.31;37.37;98428.91;5024920;28;20037;-65
2021/05/21 08:14:44;;;;;;;748.10;690.07;;;;;;;19.62;37.65;98431.41;5030724;28;20025;-65
2021/05/21 08:17:10;;;;;;;750.87;692.73;;;;;;;20.02;39.42;98428.13;5032098;28;20398;-64
2021/05/21 08:19:37;;;;;;;765.20;706.43;;;;;;;20.36;37.33;98426.94;5011967;28;20192;-64
2021/05/21 08:22:03;;;;;;;772.40;713.33;;;;;;;20.51;39.00;98417.31;5034093;28;20029;-64
2021/05/21 08:24:28;;;;;;;786.40;726.70;;;;;;;20.72;36.36;98413.38;5033385;28;20034;-65
2021/05/21 08:26:54;;;;;;;783.30;724.03;;;;;;;20.71;35.82;98411.69;5036450;28;20392;-62
2021/05/21 08:29:19;;;;;;;785.37;726.27;;;;;;;20.76;35.91;98414.84;5032459;28;20033;-63
2021/05/21 08:31:45;;;;;;;790.03;731.00;;;;;;;20.71;36.43;98403.06;5033170;28;20029;-65
2021/05/21 08:34:10;;;;;;;802.97;743.20;;;;;;;20.80;36.68;98408.50;5034346;28;20083;-65
2021/05/21 08:36:35;;;;;;;796.80;737.13;;;;;;;20.82;36.31;98409.25;5016568;28;20037;-64
2021/05/21 08:39:01;;;;;;;798.23;738.93;;;;;;;20.93;36.36;98404.16;5029891;28;20056;-64
2021/05/21 08:41:28;;;;;;;803.60;744.07;;;;;;;21.27;36.34;98409.81;5032086;28;20034;-65
2021/05/21 08:43:55;;;;;;;808.13;747.97;;;;;;;21.54;34.81;98404.56;5026334;28;20029;-64
2021/05/21 08:46:23;;;;;;;818.67;758.83;;;;;;;21.71;33.90;98392.06;5029420;28;20484;-64
2021/05/21 08:48:49;;;;;;;824.87;764.83;;;;;;;21.46;34.63;98381.59;5026874;28;20060;-65
2021/05/21 08:51:15;;;;;;;821.37;761.43;;;;;;;21.55;33.69;98396.63;5027716;28;20256;-64
2021/05/21 08:53:41;;;;;;;834.83;774.47;;;;;;;21.74;35.67;98393.59;5031122;28;20041;-65
2021/05/21 08:56:08;;;;;;;837.53;776.73;;;;;;;21.96;34.88;98393.84;5031720;28;20090;-64
2021/05/21 08:58:35;;;;;;;841.00;780.27;;;;;;;21.75;33.98;98396.13;5030227;28;20021;-64
2021/05/21 09:01:01;;;;;;;840.77;780.20;;;;;;;21.69;34.49;98391.31;5031620;28;20084;-64
2021/05/21 09:03:29;;;;;;;847.67;787.10;;;;;;;21.63;34.57;98383.06;5032387;28;20378;-64
2021/05/21 09:06:30;;;;;;;842.00;781.37;;;;;;;21.55;34.58;98378.38;5030980;28;20459;-64
2021/05/21 09:08:57;;;;;;;843.60;783.23;;;;;;;21.96;35.00;98377.34;5031922;28;20045;-64
2021/05/21 09:11:26;;;;;;;859.73;798.50;;;;;;;22.67;32.98;98380.09;5033449;28;20087;-64
2021/05/21 09:13:56;;;;;;;861.67;800.60;;;;;;;22.70;31.17;98378.13;5031711;28;20026;-64
2021/05/21 09:16:23;;;;;;;868.20;806.80;;;;;;;22.74;33.17;98376.94;5032896;28;20041;-64
2021/05/21 09:19:10;;;;;;;871.40;809.80;;;;;;;22.86;31.36;98366.56;5032418;28;20119;-65
2021/05/21 09:21:49;;;;;;;872.23;810.63;;;;;;;22.68;32.95;98353.84;5030158;28;20030;-65
2021/05/21 09:24:15;;;;;;;871.60;810.03;;;;;;;22.68;32.15;98356.47;5016137;28;20370;-64
2021/05/21 09:26:43;;;;;;;870.43;809.13;;;;;;;22.50;33.80;98354.34;5029567;28;20249;-64
2021/05/21 09:29:11;;;;;;;883.63;821.87;;;;;;;22.70;32.33;98351.97;5033288;28;20060;-64
2021/05/21 09:31:42;;;;;;;878.73;816.57;;;;;;;22.61;33.93;98350.03;5021468;28;20032;-63
2021/05/21 09:34:09;;;;;;;887.03;825.13;;;;;;;22.79;32.58;98339.22;5028663;28;20116;-63
2021/05/21 09:36:38;;;;;;;884.67;822.90;;;;;;;22.77;33.16;98347.16;5030318;28;20026;-63
2021/05/21 09:39:08;;;;;;;882.93;821.07;;;;;;;22.83;32.96;98338.03;5033081;28;20123;-63
2021/05/21 09:41:55;;;;;;;890.17;828.00;;;;;;;22.75;33.49;98347.25;5032164;28;20072;-63
2021/05/21 09:44:22;;;;;;;880.77;819.27;;;;;;;23.13;32.02;98338.38;5033920;28;20298;-63
2021/05/21 09:46:50;;;;;;;887.87;826.07;;;;;;;23.31;32.44;98330.94;5029455;28;20022;-63
2021/05/21 09:49:38;;;;;;;902.13;839.53;;;;;;;23.43;32.11;98336.09;5027471;28;20037;-63
2021/05/21 09:52:14;;;;;;;900.17;837.93;;;;;;;23.59;31.51;98331.34;5028534;28;20038;-63
2021/05/21 09:54:54;;;;;;;904.63;842.03;;;;;;;23.60;30.72;98326.94;5027238;28;20060;-63
2021/05/21 09:57:36;;;;;;;909.67;847.07;;;;;;;23.33;32.15;98319.41;5031374;28;20025;-63
2021/05/21 10:00:10;;;;;;;906.83;844.57;;;;;;;23.80;30.45;98310.56;5033351;28;20075;-63
2021/05/21 10:02:37;;;;;;;910.55;847.55;;;;;;;23.55;31.62;98316.84;5030395;28;20029;-64
2021/05/21 10:05:06;;;;;;;914.83;852.17;;;;;;;23.52;31.12;98318.84;5030872;28;20036;-63
2021/05/21 10:07:31;;;;;;;909.73;847.07;;;;;;;23.17;32.08;98305.78;5031350;28;20029;-63
2021/05/21 10:09:57;;;;;;;908.03;845.07;;;;;;;23.14;31.07;98309.50;5033032;28;20036;-62
2021/05/21 10:12:24;;;;;;;901.30;839.10;;;;;;;23.15;31.60;98313.78;5035235;28;20044;-62
2021/05/21 10:14:51;;;;;;;902.93;840.43;;;;;;;23.23;31.28;98311.41;5035085;28;20076;-63
2021/05/21 10:17:18;;;;;;;895.10;833.03;;;;;;;23.25;33.26;98320.94;5032339;28;20029;-63
2021/05/21 10:19:46;;;;;;;900.57;838.43;;;;;;;23.14;32.40;98303.41;5026583;28;20072;-63
2021/05/21 10:22:15;;;;;;;908.37;845.47;;;;;;;23.19;33.20;98303.91;5030127;28;20048;-63
2021/05/21 10:24:43;;;;;;;906.63;844.03;;;;;;;23.31;33.60;98308.22;5027722;28;20064;-63
2021/05/21 10:27:16;;;;;;;909.07;846.40;;;;;;;23.50;32.51;98302.47;5029304;28;20071;-63
2021/05/21 10:29:48;;;;;;;912.37;849.60;;;;;;;23.58;31.78;98308.78;5026962;28;20106;-64
2021/05/21 10:32:18;;;;;;;909.13;846.40;;;;;;;23.73;31.91;98304.13;5027471;28;20371;-64
2021/05/21 10:34:48;;;;;;;918.23;855.33;;;;;;;23.68;32.57;98298.41;5027151;28;20041;-63
2021/05/21 10:37:19;;;;;;;920.77;857.87;;;;;;;23.91;33.69;98294.84;5018528;28;20456;-63
2021/05/21 10:39:59;;;;;;;925.37;862.13;;;;;;;24.16;31.83;98301.63;5028860;28;20037;-64
2021/05/21 10:42:24;;;;;;;925.00;861.83;;;;;;;23.92;31.08;98298.28;5017982;28;20033;-63
2021/05/21 10:44:51;;;;;;;933.13;869.43;;;;;;;24.28;31.54;98298.00;5028332;28;20040;-63
2021/05/21 10:47:16;;;;;;;938.37;874.77;;;;;;;24.30;32.26;98301.38;5031167;28;20057;-63
2021/05/21 10:50:02;;;;;;;944.37;880.47;;;;;;;24.67;30.16;98296.59;5026773;28;20107;-64
2021/05/21 10:52:50;;;;;;;942.77;879.00;;;;;;;24.62;30.57;98290.88;5010826;28;20041;-63
2021/05/21 10:55:17;;;;;;;939.10;875.13;;;;;;;24.45;30.22;98297.50;5026799;28;20041;-64
2021/05/21 10:57:57;;;;;;;949.27;884.63;;;;;;;24.45;29.18;98294.88;5021669;28;20041;-64
2021/05/21 11:00:22;;;;;;;944.53;879.87;;;;;;;24.21;31.30;98278.50;5028962;28;20034;-64
2021/05/21 11:02:53;;;;;;;946.07;882.27;;;;;;;23.96;30.19;98270.91;5031016;28;20304;-64